Flight Track Log - Related Links

Times and Time Zones

All times are in EDT time to prevent confusion due to time zone crossing. See the SWA1380 flight status page for this flight to view local times or setup timezone preferences in your user account.

Time Position Orientation Groundspeed Altitude Reporting Facility
EDT Latitude Longitude Course Direction KTS MPH feet Rate Location/Type
Wed 02:13:10 PM 41.7833 -87.7167 171° South 165 190 2,500  Level Chicago TRACON
Wed 02:15:25 PM 41.6803 -87.6525 155° Southeast 221 254 5,900 1,041 Climbing Chicago Center
Wed 02:16:26 PM 41.6167 -87.6197 159° South 236 272 5,900 976 Level Chicago Center
Wed 02:17:28 PM 41.5519 -87.5861 159° South 245 282 7,900 2,829 Climbing Chicago Center
Wed 02:18:00 PM 40.8131 -87.4293 171° South  Level FlightAware Approximate
Wed 02:18:29 PM 41.4811 -87.5808 177° South 252 290 11,700  Level Chicago Center
Wed 02:19:31 PM 41.4094 -87.5703 174° South 257 296 11,900 1,073 Climbing Chicago Center
Wed 02:20:32 PM 41.3314 -87.5561 172° South 274 315 13,900 2,902 Climbing Chicago Center
Wed 02:21:33 PM 41.2453 -87.5414 173° South 304 350 17,800 3,512 Climbing Chicago Center
Wed 02:22:35 PM 41.1525 -87.5208 171° South 330 380 21,100 2,829 Climbing Chicago Center
Wed 02:23:36 PM 41.0525 -87.4936 168° South 359 413 23,600 2,634 Climbing Chicago Center
Wed 02:24:38 PM 40.9228 -87.4575 168° South 393 452 26,500 2,585 Climbing Chicago Center
Wed 02:25:39 PM 40.8086 -87.4272 169° South 415 478 28,900 2,016 Climbing Chicago Center
Wed 02:26:40 PM 40.6875 -87.3961 169° South 438 504 30,600 1,659 Climbing Chicago Center
Wed 02:27:42 PM 40.5639 -87.3631 169° South 452 520 32,300 1,902 Climbing Chicago Center
Wed 02:28:43 PM 40.4408 -87.3158 164° South 469 540 34,500 2,000 Climbing Chicago Center
Wed 02:29:45 PM 40.3311 -87.2203 146° Southeast 480 552 36,400 1,659 Climbing Chicago Center
Wed 02:30:46 PM 40.2242 -87.1211 145° Southeast 475 547 37,900 1,377 Climbing Chicago Center
Wed 02:31:47 PM 40.1158 -87.0231 145° Southeast 475 547 39,200 1,651 Climbing Chicago Center
Wed 02:32:35 PM 40.0292 -86.9411 144° Southeast 478 550 40,900 982 Climbing Indianapolis Center
Wed 02:33:37 PM 39.9044 -86.8333 146° Southeast 455 524 41,000 48 Climbing Indianapolis Center
Wed 02:34:39 PM 39.8339 -86.6992 124° Southeast 469 540 41,000  Level Indianapolis Center
Wed 02:35:40 PM 39.7947 -86.5333 107° East 476 548 41,000  Level Indianapolis Center
Wed 02:36:42 PM 39.7544 -86.3689 108° East 476 548 41,000  Level Indianapolis Center
Wed 02:37:44 PM 39.7150 -86.2053 107° East 474 545 41,000  Level Indianapolis Center
Wed 02:38:45 PM 39.6764 -86.0425 107° East 470 541 41,000  Level Indianapolis Center
Wed 02:39:47 PM 39.6356 -85.8792 108° East 472 543 41,000  Level Indianapolis Center
Wed 02:40:49 PM 39.5956 -85.7156 108° East 473 544 41,000  Level Indianapolis Center
Wed 02:41:51 PM 39.5481 -85.5244 108° East 474 545 41,000  Level Indianapolis Center
Wed 02:42:52 PM 39.5081 -85.3611 108° East 472 543 41,000  Level Indianapolis Center
Wed 02:43:54 PM 39.4653 -85.1986 109° East 474 545 41,000  Level Indianapolis Center
Wed 02:44:56 PM 39.4253 -85.0353 108° East 472 543 41,000  Level Indianapolis Center
Wed 02:45:58 PM 39.3836 -84.8700 108° East 480 552 41,000  Level Indianapolis Center
Wed 02:46:59 PM 39.3394 -84.7019 109° East 490 564 41,000  Level Indianapolis Center
Wed 02:48:01 PM 39.2967 -84.5364 108° East 484 557 41,000  Level Indianapolis Center
Wed 02:49:03 PM 39.2536 -84.3703 108° East 486 559 41,000  Level Indianapolis Center
Wed 02:50:05 PM 39.2036 -84.1786 109° East 481 554 41,000  Level Indianapolis Center
Wed 02:51:07 PM 39.1594 -84.0144 109° East 483 556 41,000  Level Indianapolis Center
Wed 02:52:09 PM 39.1142 -83.8489 109° East 487 560 41,000  Level Indianapolis Center
Wed 02:53:10 PM 39.0711 -83.6814 108° East 491 565 41,000  Level Indianapolis Center
Wed 02:54:12 PM 39.0258 -83.5150 109° East 492 566 41,000  Level Indianapolis Center
Wed 02:55:14 PM 38.9808 -83.3453 109° East 498 573 41,000  Level Indianapolis Center
Wed 02:56:16 PM 38.9283 -83.1525 109° East 494 568 41,000  Level Indianapolis Center
Wed 02:57:18 PM 38.8817 -82.9886 110° East 490 564 41,000  Level Indianapolis Center
Wed 02:58:20 PM 38.8358 -82.8214 109° East 496 571 41,000  Level Indianapolis Center
Wed 02:59:21 PM 38.7903 -82.6553 109° East 494 568 41,000 -439 Level Indianapolis Center
Wed 03:00:23 PM 38.7436 -82.4917 110° East 492 566 40,100 -823 Descending Indianapolis Center
Wed 03:01:25 PM 38.6994 -82.3333 110° East 476 548 39,300 -532 Descending Indianapolis Center
Wed 03:02:27 PM 38.6547 -82.1769 110° East 471 542 39,000 -532 Descending Indianapolis Center
Wed 03:03:29 PM 38.6014 -81.9903 110° East 468 539 38,200 -823 Descending Indianapolis Center
Wed 03:04:31 PM 38.5569 -81.8353 110° East 469 540 37,300 -919 Descending Indianapolis Center
Wed 03:05:33 PM 38.5106 -81.6806 111° Southeast 471 542 36,300 -919 Descending Indianapolis Center
Wed 03:06:35 PM 38.4656 -81.5242 110° East 476 548 35,400 -1,016 Descending Indianapolis Center
Wed 03:07:37 PM 38.4111 -81.3364 110° East 481 554 34,200 -1,016 Descending Indianapolis Center
Wed 03:08:39 PM 38.3664 -81.1814 110° East 466 536 33,300 -581 Descending Indianapolis Center
Wed 03:09:41 PM 38.3192 -81.0258 111° Southeast 471 542 33,000 -214 Descending Indianapolis Center
Wed 03:10:03 PM 38.3025 -80.9817 116° Southeast 473 544 33,000  Level Washington Center
Wed 03:11:03 PM 38.2572 -80.8275 110° East 473 544 33,000  Level Washington Center
Wed 03:12:03 PM 38.2117 -80.6711 110° East 473 544 33,000  Level Washington Center
Wed 03:13:03 PM 38.1767 -80.5103 105° East 473 544 33,000  Level Washington Center
Wed 03:14:03 PM 38.1400 -80.3308 105° East 473 544 33,000 -350 Level Washington Center
Wed 03:15:03 PM 38.1047 -80.1650 105° East 479 551 32,300 -1,000 Descending Washington Center
Wed 03:16:03 PM 38.0733 -80.0022 104° East 479 551 31,000 -1,900 Descending Washington Center
Wed 03:17:03 PM 38.0394 -79.8447 105° East 479 551 28,500 -2,450 Descending Washington Center
Wed 03:18:03 PM 38.0131 -79.7033 103° East 459 528 26,100 -1,750 Descending Washington Center
Wed 03:19:03 PM 37.9825 -79.5569 105° East 447 514 25,000 -900 Descending Washington Center
Wed 03:20:03 PM 37.9581 -79.4106 102° East 433 498 24,300 -800 Descending Washington Center
Wed 03:21:03 PM 37.9314 -79.2697 103° East 421 484 23,400 -650 Descending Washington Center
Wed 03:22:03 PM 37.9064 -79.1292 103° East 416 479 23,000 -200 Descending Washington Center
Wed 03:23:03 PM 37.8689 -78.9800 108° East 411 473 23,000  Level Washington Center
Wed 03:24:03 PM 37.8289 -78.8467 111° Southeast 405 466 23,000  Level Washington Center
Wed 03:25:03 PM 37.7906 -78.7136 110° East 405 466 23,000  Level Washington Center
Wed 03:26:03 PM 37.7525 -78.5781 110° East 405 466 23,000 -300 Level Washington Center
Wed 03:27:03 PM 37.7139 -78.4481 111° Southeast 405 466 22,400 -800 Descending Washington Center
Wed 03:28:03 PM 37.6792 -78.3286 110° East 399 459 21,400 -700 Descending Washington Center
Wed 03:29:03 PM 37.6422 -78.1986 110° East 399 459 21,000 -200 Descending Washington Center
Wed 03:30:03 PM 37.5992 -78.0689 113° Southeast 399 459 21,000  Level Washington Center
Wed 03:31:03 PM 37.5622 -77.9392 110° East 394 453 21,000  Level Washington Center
Wed 03:32:03 PM 37.5253 -77.7942 108° East 394 453 21,000 -200 Level Washington Center
Wed 03:33:03 PM 37.5172 -77.6603 94° East 389 448 20,600 -1,200 Descending Washington Center
Wed 03:34:03 PM 37.5089 -77.5292 95° East 383 441 18,600 -2,050 Descending Washington Center
Wed 03:35:03 PM 37.4983 -77.4033 96° East 371 427 16,500 -1,300 Descending Washington Center
Wed 03:36:03 PM 37.4897 -77.2775 95° East 366 421 16,000 -250 Descending Washington Center
Wed 03:37:03 PM 37.4828 -77.1778 95° East 366 421 16,000  Level Washington Center
Wed 03:38:00 PM 37.4700 -77.0389 97° East 363 418 16,000 -339 Level Washington Center
Wed 03:39:07 PM 37.4592 -76.8947 95° East 360 414 15,300 -780 Descending Washington Center
Wed 03:40:03 PM 37.4539 -76.7875 94° East 366 421 14,400 -672 Descending Washington Center
Wed 03:41:03 PM 37.4425 -76.6669 97° East 360 414 14,000 -200 Descending Washington Center
Wed 03:42:03 PM 37.4331 -76.5492 96° East 347 399 14,000  Level Washington Center
Wed 03:43:10 PM 37.4256 -76.4417 95° East 267 307 14,000 -500 Level Washington Center
Wed 03:44:03 PM 37.4200 -76.3633 95° East 280 322 13,000 -1,115 Descending Washington Center
Wed 03:45:03 PM 37.4100 -76.2689 98° East 272 313 11,900 -1,200 Descending Washington Center
Wed 03:46:03 PM 37.3433 -76.2397 161° South 218 251 10,600 -1,150 Descending Washington Center
Wed 03:47:03 PM 37.2725 -76.2208 168° South 227 261 9,600 -1,182 Descending Washington Center
Wed 03:48:15 PM 37.1850 -76.2228 181° South 242 278 8,000 -1,591 Descending Washington Center
Wed 03:49:15 PM 37.1203 -76.2169 176° South 238 274 6,100 -1,488 Descending Washington Center
Wed 03:50:16 PM 37.0556 -76.2294 189° South 217 250 5,000 -1,082 Descending Washington Center

Login

Don't have an account? Register now (free) for customized features, flight alerts, and more!